sensor_id;sensor_type;location;lat;lon;timestamp;P1;durP1;ratioP1;P2;durP2;ratioP2
12871;SDS011;6504;53.766;9.626;2023-04-23T00:01:01;9.87;;;9.07;;
12871;SDS011;6504;53.766;9.626;2023-04-23T00:03:31;9.87;;;8.97;;
12871;SDS011;6504;53.766;9.626;2023-04-23T00:06:00;10.20;;;9.40;;
12871;SDS011;6504;53.766;9.626;2023-04-23T00:08:33;10.53;;;9.50;;
12871;SDS011;6504;53.766;9.626;2023-04-23T00:11:01;9.67;;;8.87;;
12871;SDS011;6504;53.766;9.626;2023-04-23T00:13:31;10.17;;;9.37;;
12871;SDS011;6504;53.766;9.626;2023-04-23T00:15:59;10.20;;;9.30;;
12871;SDS011;6504;53.766;9.626;2023-04-23T00:18:28;9.17;;;8.37;;
12871;SDS011;6504;53.766;9.626;2023-04-23T00:20:56;9.77;;;8.97;;
12871;SDS011;6504;53.766;9.626;2023-04-23T00:23:24;9.90;;;9.03;;
12871;SDS011;6504;53.766;9.626;2023-04-23T00:25:52;9.97;;;9.03;;
12871;SDS011;6504;53.766;9.626;2023-04-23T00:28:21;10.13;;;9.33;;
12871;SDS011;6504;53.766;9.626;2023-04-23T00:30:49;10.17;;;9.27;;
12871;SDS011;6504;53.766;9.626;2023-04-23T00:33:17;10.03;;;9.13;;
12871;SDS011;6504;53.766;9.626;2023-04-23T00:35:45;9.97;;;9.17;;
12871;SDS011;6504;53.766;9.626;2023-04-23T00:38:13;10.80;;;10.00;;
12871;SDS011;6504;53.766;9.626;2023-04-23T00:40:42;11.20;;;10.30;;
12871;SDS011;6504;53.766;9.626;2023-04-23T00:43:10;10.80;;;9.90;;
12871;SDS011;6504;53.766;9.626;2023-04-23T00:45:40;11.30;;;10.33;;
12871;SDS011;6504;53.766;9.626;2023-04-23T00:48:08;12.77;;;11.70;;
12871;SDS011;6504;53.766;9.626;2023-04-23T00:50:37;21.80;;;19.90;;
12871;SDS011;6504;53.766;9.626;2023-04-23T00:53:05;33.00;;;29.80;;
12871;SDS011;6504;53.766;9.626;2023-04-23T00:55:33;36.80;;;33.37;;
12871;SDS011;6504;53.766;9.626;2023-04-23T00:58:02;40.63;;;36.63;;
12871;SDS011;6504;53.766;9.626;2023-04-23T01:00:32;41.20;;;37.20;;
12871;SDS011;6504;53.766;9.626;2023-04-23T01:03:06;41.73;;;37.80;;
12871;SDS011;6504;53.766;9.626;2023-04-23T01:05:35;45.17;;;40.63;;
12871;SDS011;6504;53.766;9.626;2023-04-23T01:08:03;43.63;;;39.30;;
12871;SDS011;6504;53.766;9.626;2023-04-23T01:10:31;47.73;;;42.93;;
12871;SDS011;6504;53.766;9.626;2023-04-23T01:12:59;46.20;;;41.87;;
12871;SDS011;6504;53.766;9.626;2023-04-23T01:15:27;48.43;;;43.77;;
12871;SDS011;6504;53.766;9.626;2023-04-23T01:17:56;46.93;;;42.33;;
12871;SDS011;6504;53.766;9.626;2023-04-23T01:20:26;45.23;;;40.63;;
12871;SDS011;6504;53.766;9.626;2023-04-23T01:22:55;44.53;;;40.17;;
12871;SDS011;6504;53.766;9.626;2023-04-23T01:25:23;43.00;;;38.87;;
12871;SDS011;6504;53.766;9.626;2023-04-23T01:27:52;40.73;;;36.63;;
12871;SDS011;6504;53.766;9.626;2023-04-23T01:30:20;39.83;;;36.03;;
12871;SDS011;6504;53.766;9.626;2023-04-23T01:32:48;37.83;;;34.23;;
12871;SDS011;6504;53.766;9.626;2023-04-23T01:35:17;37.17;;;33.53;;
12871;SDS011;6504;53.766;9.626;2023-04-23T01:37:45;37.73;;;34.20;;
12871;SDS011;6504;53.766;9.626;2023-04-23T01:40:16;36.33;;;32.67;;
12871;SDS011;6504;53.766;9.626;2023-04-23T01:42:44;38.23;;;34.27;;
12871;SDS011;6504;53.766;9.626;2023-04-23T01:45:12;33.10;;;29.77;;
12871;SDS011;6504;53.766;9.626;2023-04-23T01:47:40;32.23;;;29.03;;
12871;SDS011;6504;53.766;9.626;2023-04-23T01:50:09;32.77;;;29.53;;
12871;SDS011;6504;53.766;9.626;2023-04-23T01:52:37;33.20;;;29.90;;
12871;SDS011;6504;53.766;9.626;2023-04-23T01:55:05;32.00;;;28.90;;
12871;SDS011;6504;53.766;9.626;2023-04-23T01:57:35;30.13;;;27.23;;
12871;SDS011;6504;53.766;9.626;2023-04-23T02:00:04;31.27;;;28.07;;
12871;SDS011;6504;53.766;9.626;2023-04-23T02:02:34;29.07;;;26.07;;
12871;SDS011;6504;53.766;9.626;2023-04-23T02:05:03;28.37;;;25.43;;
12871;SDS011;6504;53.766;9.626;2023-04-23T02:07:36;24.67;;;22.17;;
12871;SDS011;6504;53.766;9.626;2023-04-23T02:10:04;22.97;;;20.73;;
12871;SDS011;6504;53.766;9.626;2023-04-23T02:12:33;22.70;;;20.37;;
12871;SDS011;6504;53.766;9.626;2023-04-23T02:15:03;23.17;;;20.97;;
12871;SDS011;6504;53.766;9.626;2023-04-23T02:17:33;22.67;;;20.37;;
12871;SDS011;6504;53.766;9.626;2023-04-23T02:20:01;23.77;;;21.47;;
12871;SDS011;6504;53.766;9.626;2023-04-23T02:22:31;22.40;;;20.10;;
12871;SDS011;6504;53.766;9.626;2023-04-23T02:24:59;14.77;;;13.27;;
12871;SDS011;6504;53.766;9.626;2023-04-23T02:27:27;12.07;;;10.87;;
12871;SDS011;6504;53.766;9.626;2023-04-23T02:29:56;10.47;;;9.57;;
12871;SDS011;6504;53.766;9.626;2023-04-23T02:32:24;10.60;;;9.60;;
12871;SDS011;6504;53.766;9.626;2023-04-23T02:34:53;11.03;;;9.90;;
12871;SDS011;6504;53.766;9.626;2023-04-23T02:37:21;10.90;;;9.80;;
12871;SDS011;6504;53.766;9.626;2023-04-23T02:39:49;11.83;;;9.13;;
12871;SDS011;6504;53.766;9.626;2023-04-23T02:42:17;10.43;;;9.33;;
12871;SDS011;6504;53.766;9.626;2023-04-23T02:44:45;9.70;;;8.70;;
12871;SDS011;6504;53.766;9.626;2023-04-23T02:47:15;11.03;;;8.87;;
12871;SDS011;6504;53.766;9.626;2023-04-23T02:49:43;9.07;;;8.10;;
12871;SDS011;6504;53.766;9.626;2023-04-23T02:52:11;8.67;;;7.87;;
12871;SDS011;6504;53.766;9.626;2023-04-23T02:54:39;7.97;;;7.27;;
12871;SDS011;6504;53.766;9.626;2023-04-23T02:57:07;7.67;;;6.73;;
12871;SDS011;6504;53.766;9.626;2023-04-23T02:59:35;7.63;;;5.97;;
12871;SDS011;6504;53.766;9.626;2023-04-23T03:02:03;7.57;;;6.17;;
12871;SDS011;6504;53.766;9.626;2023-04-23T03:04:33;9.40;;;6.23;;
12871;SDS011;6504;53.766;9.626;2023-04-23T03:07:01;6.60;;;5.83;;
12871;SDS011;6504;53.766;9.626;2023-04-23T03:09:29;6.30;;;5.70;;
12871;SDS011;6504;53.766;9.626;2023-04-23T03:11:57;6.33;;;5.60;;
12871;SDS011;6504;53.766;9.626;2023-04-23T03:14:25;6.53;;;5.43;;
12871;SDS011;6504;53.766;9.626;2023-04-23T03:16:53;5.73;;;5.23;;
12871;SDS011;6504;53.766;9.626;2023-04-23T03:19:21;6.10;;;5.50;;
12871;SDS011;6504;53.766;9.626;2023-04-23T03:21:50;6.27;;;5.37;;
12871;SDS011;6504;53.766;9.626;2023-04-23T03:24:18;5.90;;;5.20;;
12871;SDS011;6504;53.766;9.626;2023-04-23T03:26:47;7.70;;;5.40;;
12871;SDS011;6504;53.766;9.626;2023-04-23T03:29:15;5.90;;;5.23;;
12871;SDS011;6504;53.766;9.626;2023-04-23T03:31:43;5.67;;;4.93;;
12871;SDS011;6504;53.766;9.626;2023-04-23T03:34:11;9.30;;;5.77;;
12871;SDS011;6504;53.766;9.626;2023-04-23T03:36:39;5.87;;;5.27;;
12871;SDS011;6504;53.766;9.626;2023-04-23T03:39:11;5.90;;;5.30;;
12871;SDS011;6504;53.766;9.626;2023-04-23T03:41:39;7.10;;;6.33;;
12871;SDS011;6504;53.766;9.626;2023-04-23T03:44:07;7.20;;;5.67;;
12871;SDS011;6504;53.766;9.626;2023-04-23T03:46:35;7.33;;;6.57;;
12871;SDS011;6504;53.766;9.626;2023-04-23T03:49:03;8.30;;;5.93;;
12871;SDS011;6504;53.766;9.626;2023-04-23T03:51:31;6.40;;;5.80;;
12871;SDS011;6504;53.766;9.626;2023-04-23T03:53:59;6.50;;;5.87;;
12871;SDS011;6504;53.766;9.626;2023-04-23T03:56:29;7.27;;;6.63;;
12871;SDS011;6504;53.766;9.626;2023-04-23T03:58:57;7.40;;;6.17;;
12871;SDS011;6504;53.766;9.626;2023-04-23T04:01:25;7.20;;;6.50;;
12871;SDS011;6504;53.766;9.626;2023-04-23T04:03:53;6.90;;;6.20;;
12871;SDS011;6504;53.766;9.626;2023-04-23T04:06:21;9.60;;;6.27;;
12871;SDS011;6504;53.766;9.626;2023-04-23T04:08:49;6.97;;;6.37;;
12871;SDS011;6504;53.766;9.626;2023-04-23T04:11:17;6.70;;;6.10;;
12871;SDS011;6504;53.766;9.626;2023-04-23T04:13:47;7.20;;;6.50;;
12871;SDS011;6504;53.766;9.626;2023-04-23T04:16:15;7.07;;;6.37;;
12871;SDS011;6504;53.766;9.626;2023-04-23T04:18:43;6.60;;;6.00;;
12871;SDS011;6504;53.766;9.626;2023-04-23T04:21:11;6.67;;;6.03;;
12871;SDS011;6504;53.766;9.626;2023-04-23T04:23:39;7.57;;;6.30;;
12871;SDS011;6504;53.766;9.626;2023-04-23T04:26:07;7.00;;;6.30;;
12871;SDS011;6504;53.766;9.626;2023-04-23T04:28:35;8.07;;;7.20;;
12871;SDS011;6504;53.766;9.626;2023-04-23T04:31:04;8.47;;;7.67;;
12871;SDS011;6504;53.766;9.626;2023-04-23T04:33:34;8.00;;;7.20;;
12871;SDS011;6504;53.766;9.626;2023-04-23T04:36:05;8.43;;;7.53;;
12871;SDS011;6504;53.766;9.626;2023-04-23T04:38:34;7.87;;;7.13;;
12871;SDS011;6504;53.766;9.626;2023-04-23T04:41:04;7.30;;;6.60;;
12871;SDS011;6504;53.766;9.626;2023-04-23T04:43:33;7.63;;;6.87;;
12871;SDS011;6504;53.766;9.626;2023-04-23T04:46:01;7.40;;;6.70;;
12871;SDS011;6504;53.766;9.626;2023-04-23T04:48:33;7.13;;;6.53;;
12871;SDS011;6504;53.766;9.626;2023-04-23T04:51:01;7.70;;;6.43;;
12871;SDS011;6504;53.766;9.626;2023-04-23T04:53:30;6.90;;;6.17;;
12871;SDS011;6504;53.766;9.626;2023-04-23T04:55:58;6.10;;;5.50;;
12871;SDS011;6504;53.766;9.626;2023-04-23T04:58:26;7.50;;;5.80;;
12871;SDS011;6504;53.766;9.626;2023-04-23T05:00:54;6.03;;;5.43;;
12871;SDS011;6504;53.766;9.626;2023-04-23T05:03:22;6.63;;;5.20;;
12871;SDS011;6504;53.766;9.626;2023-04-23T05:05:52;6.60;;;6.00;;
12871;SDS011;6504;53.766;9.626;2023-04-23T05:08:21;6.00;;;5.30;;
12871;SDS011;6504;53.766;9.626;2023-04-23T05:10:49;6.07;;;5.47;;
12871;SDS011;6504;53.766;9.626;2023-04-23T05:13:19;6.20;;;5.57;;
12871;SDS011;6504;53.766;9.626;2023-04-23T05:15:48;6.10;;;5.47;;
12871;SDS011;6504;53.766;9.626;2023-04-23T05:18:16;6.07;;;5.40;;
12871;SDS011;6504;53.766;9.626;2023-04-23T05:20:45;5.93;;;5.30;;
12871;SDS011;6504;53.766;9.626;2023-04-23T05:23:15;7.33;;;6.57;;
12871;SDS011;6504;53.766;9.626;2023-04-23T05:25:43;7.57;;;6.83;;
12871;SDS011;6504;53.766;9.626;2023-04-23T05:28:11;7.80;;;7.00;;
12871;SDS011;6504;53.766;9.626;2023-04-23T05:30:40;7.57;;;6.87;;
12871;SDS011;6504;53.766;9.626;2023-04-23T05:33:08;8.20;;;7.40;;
12871;SDS011;6504;53.766;9.626;2023-04-23T05:35:37;8.90;;;7.97;;
12871;SDS011;6504;53.766;9.626;2023-04-23T05:38:05;8.07;;;7.27;;
12871;SDS011;6504;53.766;9.626;2023-04-23T05:40:35;9.43;;;8.40;;
12871;SDS011;6504;53.766;9.626;2023-04-23T05:43:03;8.83;;;7.93;;
12871;SDS011;6504;53.766;9.626;2023-04-23T05:45:31;8.73;;;7.93;;
12871;SDS011;6504;53.766;9.626;2023-04-23T05:47:59;9.53;;;8.03;;
12871;SDS011;6504;53.766;9.626;2023-04-23T05:50:27;9.10;;;8.20;;
12871;SDS011;6504;53.766;9.626;2023-04-23T05:52:55;8.87;;;8.07;;
12871;SDS011;6504;53.766;9.626;2023-04-23T05:55:23;9.07;;;8.07;;
12871;SDS011;6504;53.766;9.626;2023-04-23T05:57:52;9.23;;;8.27;;
12871;SDS011;6504;53.766;9.626;2023-04-23T06:00:20;8.87;;;8.03;;
12871;SDS011;6504;53.766;9.626;2023-04-23T06:02:48;8.50;;;7.57;;
12871;SDS011;6504;53.766;9.626;2023-04-23T06:05:17;8.70;;;7.67;;
12871;SDS011;6504;53.766;9.626;2023-04-23T06:07:45;7.33;;;6.60;;
12871;SDS011;6504;53.766;9.626;2023-04-23T06:10:13;7.60;;;6.83;;
12871;SDS011;6504;53.766;9.626;2023-04-23T06:12:41;7.83;;;6.83;;
12871;SDS011;6504;53.766;9.626;2023-04-23T06:15:11;8.03;;;6.73;;
12871;SDS011;6504;53.766;9.626;2023-04-23T06:17:39;8.57;;;7.23;;
12871;SDS011;6504;53.766;9.626;2023-04-23T06:20:07;9.13;;;8.23;;
12871;SDS011;6504;53.766;9.626;2023-04-23T06:22:37;8.70;;;7.83;;
12871;SDS011;6504;53.766;9.626;2023-04-23T06:25:05;9.00;;;8.03;;
12871;SDS011;6504;53.766;9.626;2023-04-23T06:27:33;10.50;;;9.43;;
12871;SDS011;6504;53.766;9.626;2023-04-23T06:30:01;10.00;;;9.10;;
12871;SDS011;6504;53.766;9.626;2023-04-23T06:32:31;10.23;;;9.20;;
12871;SDS011;6504;53.766;9.626;2023-04-23T06:34:59;9.30;;;8.33;;
12871;SDS011;6504;53.766;9.626;2023-04-23T06:37:28;8.93;;;8.07;;
12871;SDS011;6504;53.766;9.626;2023-04-23T06:39:57;9.63;;;8.60;;
12871;SDS011;6504;53.766;9.626;2023-04-23T06:42:25;9.40;;;8.43;;
12871;SDS011;6504;53.766;9.626;2023-04-23T06:44:53;9.73;;;8.73;;
12871;SDS011;6504;53.766;9.626;2023-04-23T06:47:21;9.80;;;8.73;;
12871;SDS011;6504;53.766;9.626;2023-04-23T06:49:51;9.43;;;8.43;;
12871;SDS011;6504;53.766;9.626;2023-04-23T06:52:19;9.10;;;8.17;;
12871;SDS011;6504;53.766;9.626;2023-04-23T06:54:47;9.13;;;8.23;;
12871;SDS011;6504;53.766;9.626;2023-04-23T06:57:15;9.50;;;8.60;;
12871;SDS011;6504;53.766;9.626;2023-04-23T06:59:43;10.50;;;9.07;;
12871;SDS011;6504;53.766;9.626;2023-04-23T07:02:11;9.80;;;8.60;;
12871;SDS011;6504;53.766;9.626;2023-04-23T07:04:39;11.07;;;9.50;;
12871;SDS011;6504;53.766;9.626;2023-04-23T07:07:09;11.03;;;9.53;;
12871;SDS011;6504;53.766;9.626;2023-04-23T07:09:37;10.40;;;9.40;;
12871;SDS011;6504;53.766;9.626;2023-04-23T07:12:05;11.10;;;9.53;;
12871;SDS011;6504;53.766;9.626;2023-04-23T07:14:34;10.87;;;9.37;;
12871;SDS011;6504;53.766;9.626;2023-04-23T07:17:02;9.63;;;8.63;;
12871;SDS011;6504;53.766;9.626;2023-04-23T07:19:30;11.47;;;9.70;;
12871;SDS011;6504;53.766;9.626;2023-04-23T07:21:58;12.10;;;9.33;;
12871;SDS011;6504;53.766;9.626;2023-04-23T07:24:27;9.93;;;8.93;;
12871;SDS011;6504;53.766;9.626;2023-04-23T07:26:55;10.77;;;9.73;;
12871;SDS011;6504;53.766;9.626;2023-04-23T07:29:24;10.90;;;9.83;;
12871;SDS011;6504;53.766;9.626;2023-04-23T07:31:52;11.50;;;10.33;;
12871;SDS011;6504;53.766;9.626;2023-04-23T07:34:20;12.53;;;11.23;;
12871;SDS011;6504;53.766;9.626;2023-04-23T07:36:48;11.77;;;10.67;;
12871;SDS011;6504;53.766;9.626;2023-04-23T07:39:17;13.07;;;11.47;;
12871;SDS011;6504;53.766;9.626;2023-04-23T07:41:46;13.50;;;12.10;;
12871;SDS011;6504;53.766;9.626;2023-04-23T07:44:14;12.93;;;11.63;;
12871;SDS011;6504;53.766;9.626;2023-04-23T07:46:42;13.00;;;11.70;;
12871;SDS011;6504;53.766;9.626;2023-04-23T07:49:10;11.70;;;10.60;;
12871;SDS011;6504;53.766;9.626;2023-04-23T07:51:40;13.00;;;11.80;;
12871;SDS011;6504;53.766;9.626;2023-04-23T07:54:08;12.43;;;11.23;;
12871;SDS011;6504;53.766;9.626;2023-04-23T07:56:36;12.30;;;11.10;;
12871;SDS011;6504;53.766;9.626;2023-04-23T07:59:09;12.10;;;11.00;;
12871;SDS011;6504;53.766;9.626;2023-04-23T08:01:37;12.80;;;11.60;;
12871;SDS011;6504;53.766;9.626;2023-04-23T08:04:05;12.17;;;11.03;;
12871;SDS011;6504;53.766;9.626;2023-04-23T08:06:33;10.73;;;9.70;;
12871;SDS011;6504;53.766;9.626;2023-04-23T08:09:01;10.70;;;9.70;;
12871;SDS011;6504;53.766;9.626;2023-04-23T08:11:31;11.13;;;10.07;;
12871;SDS011;6504;53.766;9.626;2023-04-23T08:13:59;11.53;;;10.33;;
12871;SDS011;6504;53.766;9.626;2023-04-23T08:16:29;11.13;;;10.10;;
12871;SDS011;6504;53.766;9.626;2023-04-23T08:18:57;10.60;;;9.50;;
12871;SDS011;6504;53.766;9.626;2023-04-23T08:21:31;10.53;;;9.20;;
12871;SDS011;6504;53.766;9.626;2023-04-23T08:23:59;10.67;;;9.27;;
12871;SDS011;6504;53.766;9.626;2023-04-23T08:26:28;10.27;;;9.27;;
12871;SDS011;6504;53.766;9.626;2023-04-23T08:28:56;10.90;;;9.70;;
12871;SDS011;6504;53.766;9.626;2023-04-23T08:31:25;10.67;;;9.70;;
12871;SDS011;6504;53.766;9.626;2023-04-23T08:33:55;10.40;;;9.30;;
12871;SDS011;6504;53.766;9.626;2023-04-23T08:36:23;12.67;;;9.20;;
12871;SDS011;6504;53.766;9.626;2023-04-23T08:38:52;9.83;;;8.83;;
12871;SDS011;6504;53.766;9.626;2023-04-23T08:41:21;9.90;;;8.90;;
12871;SDS011;6504;53.766;9.626;2023-04-23T08:43:52;11.10;;;8.87;;
12871;SDS011;6504;53.766;9.626;2023-04-23T08:46:30;9.87;;;8.97;;
12871;SDS011;6504;53.766;9.626;2023-04-23T08:49:04;10.77;;;9.00;;
12871;SDS011;6504;53.766;9.626;2023-04-23T08:51:35;9.97;;;8.97;;
12871;SDS011;6504;53.766;9.626;2023-04-23T08:54:08;10.10;;;9.17;;
12871;SDS011;6504;53.766;9.626;2023-04-23T08:56:45;9.97;;;8.90;;
12871;SDS011;6504;53.766;9.626;2023-04-23T08:59:13;10.30;;;9.30;;
12871;SDS011;6504;53.766;9.626;2023-04-23T09:01:43;9.83;;;8.93;;
12871;SDS011;6504;53.766;9.626;2023-04-23T09:04:12;9.77;;;8.87;;
12871;SDS011;6504;53.766;9.626;2023-04-23T09:06:42;10.70;;;9.60;;
12871;SDS011;6504;53.766;9.626;2023-04-23T09:09:10;11.00;;;10.03;;
12871;SDS011;6504;53.766;9.626;2023-04-23T09:11:41;12.47;;;11.27;;
12871;SDS011;6504;53.766;9.626;2023-04-23T09:14:10;11.17;;;10.13;;
12871;SDS011;6504;53.766;9.626;2023-04-23T09:16:39;12.33;;;11.10;;
12871;SDS011;6504;53.766;9.626;2023-04-23T09:19:08;11.57;;;10.43;;
12871;SDS011;6504;53.766;9.626;2023-04-23T09:21:38;11.30;;;10.23;;
12871;SDS011;6504;53.766;9.626;2023-04-23T09:24:08;11.43;;;10.33;;
12871;SDS011;6504;53.766;9.626;2023-04-23T09:26:42;11.43;;;10.23;;
12871;SDS011;6504;53.766;9.626;2023-04-23T09:29:12;11.70;;;10.50;;
12871;SDS011;6504;53.766;9.626;2023-04-23T09:31:43;12.60;;;11.40;;
12871;SDS011;6504;53.766;9.626;2023-04-23T09:34:13;12.20;;;11.00;;
12871;SDS011;6504;53.766;9.626;2023-04-23T09:36:45;12.90;;;11.60;;
12871;SDS011;6504;53.766;9.626;2023-04-23T09:39:16;14.10;;;12.70;;
12871;SDS011;6504;53.766;9.626;2023-04-23T09:41:44;12.43;;;11.33;;
12871;SDS011;6504;53.766;9.626;2023-04-23T09:44:16;12.77;;;11.57;;
12871;SDS011;6504;53.766;9.626;2023-04-23T09:46:44;13.40;;;12.07;;
12871;SDS011;6504;53.766;9.626;2023-04-23T09:49:13;13.23;;;11.93;;
12871;SDS011;6504;53.766;9.626;2023-04-23T09:51:42;13.50;;;12.30;;
12871;SDS011;6504;53.766;9.626;2023-04-23T09:54:13;14.10;;;12.80;;
12871;SDS011;6504;53.766;9.626;2023-04-23T09:56:44;14.50;;;13.03;;
12871;SDS011;6504;53.766;9.626;2023-04-23T09:59:19;13.20;;;12.03;;
12871;SDS011;6504;53.766;9.626;2023-04-23T10:02:01;13.90;;;12.60;;
12871;SDS011;6504;53.766;9.626;2023-04-23T10:04:31;14.03;;;12.73;;
12871;SDS011;6504;53.766;9.626;2023-04-23T10:07:00;13.63;;;12.37;;
12871;SDS011;6504;53.766;9.626;2023-04-23T10:09:46;13.50;;;12.30;;
12871;SDS011;6504;53.766;9.626;2023-04-23T10:12:14;13.20;;;12.00;;
12871;SDS011;6504;53.766;9.626;2023-04-23T10:15:03;13.60;;;12.37;;
12871;SDS011;6504;53.766;9.626;2023-04-23T10:17:33;13.87;;;12.67;;
12871;SDS011;6504;53.766;9.626;2023-04-23T10:20:02;13.97;;;12.47;;
12871;SDS011;6504;53.766;9.626;2023-04-23T10:22:32;13.93;;;12.63;;
12871;SDS011;6504;53.766;9.626;2023-04-23T10:25:04;12.60;;;11.50;;
12871;SDS011;6504;53.766;9.626;2023-04-23T10:27:36;13.40;;;12.10;;
12871;SDS011;6504;53.766;9.626;2023-04-23T10:30:18;13.53;;;12.27;;
12871;SDS011;6504;53.766;9.626;2023-04-23T10:32:47;13.03;;;11.83;;
12871;SDS011;6504;53.766;9.626;2023-04-23T10:35:15;13.43;;;12.20;;
12871;SDS011;6504;53.766;9.626;2023-04-23T10:37:44;12.07;;;10.87;;
12871;SDS011;6504;53.766;9.626;2023-04-23T10:40:23;12.00;;;10.77;;
12871;SDS011;6504;53.766;9.626;2023-04-23T10:42:56;13.10;;;11.80;;
12871;SDS011;6504;53.766;9.626;2023-04-23T10:45:24;12.20;;;11.03;;
12871;SDS011;6504;53.766;9.626;2023-04-23T10:47:57;12.57;;;11.47;;
12871;SDS011;6504;53.766;9.626;2023-04-23T10:50:25;11.60;;;10.50;;
12871;SDS011;6504;53.766;9.626;2023-04-23T10:52:55;11.83;;;10.73;;
12871;SDS011;6504;53.766;9.626;2023-04-23T10:55:27;12.07;;;10.97;;
12871;SDS011;6504;53.766;9.626;2023-04-23T10:57:57;12.27;;;11.17;;
12871;SDS011;6504;53.766;9.626;2023-04-23T11:00:28;10.77;;;9.77;;
12871;SDS011;6504;53.766;9.626;2023-04-23T11:05:56;11.40;;;10.40;;
12871;SDS011;6504;53.766;9.626;2023-04-23T11:08:24;12.13;;;11.00;;
12871;SDS011;6504;53.766;9.626;2023-04-23T11:10:57;11.33;;;10.23;;
12871;SDS011;6504;53.766;9.626;2023-04-23T11:13:26;11.60;;;10.50;;
12871;SDS011;6504;53.766;9.626;2023-04-23T11:16:14;11.00;;;9.90;;
12871;SDS011;6504;53.766;9.626;2023-04-23T11:18:56;10.27;;;9.37;;
12871;SDS011;6504;53.766;9.626;2023-04-23T11:24:23;11.50;;;10.40;;
12871;SDS011;6504;53.766;9.626;2023-04-23T11:26:54;11.43;;;10.30;;
12871;SDS011;6504;53.766;9.626;2023-04-23T11:29:23;12.13;;;11.03;;
12871;SDS011;6504;53.766;9.626;2023-04-23T11:31:52;11.67;;;10.60;;
12871;SDS011;6504;53.766;9.626;2023-04-23T11:34:24;12.50;;;11.27;;
12871;SDS011;6504;53.766;9.626;2023-04-23T11:36:52;11.63;;;10.57;;
12871;SDS011;6504;53.766;9.626;2023-04-23T11:39:21;13.07;;;11.87;;
12871;SDS011;6504;53.766;9.626;2023-04-23T11:41:51;12.97;;;11.77;;
12871;SDS011;6504;53.766;9.626;2023-04-23T11:44:21;13.37;;;12.17;;
12871;SDS011;6504;53.766;9.626;2023-04-23T11:46:49;12.97;;;11.87;;
12871;SDS011;6504;53.766;9.626;2023-04-23T11:49:18;14.53;;;13.23;;
12871;SDS011;6504;53.766;9.626;2023-04-23T11:51:47;13.63;;;12.43;;
12871;SDS011;6504;53.766;9.626;2023-04-23T11:54:15;13.57;;;12.43;;
12871;SDS011;6504;53.766;9.626;2023-04-23T11:56:43;14.30;;;13.10;;
12871;SDS011;6504;53.766;9.626;2023-04-23T11:59:11;12.23;;;11.13;;
12871;SDS011;6504;53.766;9.626;2023-04-23T12:01:41;13.30;;;12.10;;
12871;SDS011;6504;53.766;9.626;2023-04-23T12:04:11;13.43;;;12.23;;
12871;SDS011;6504;53.766;9.626;2023-04-23T12:06:41;12.43;;;11.33;;
12871;SDS011;6504;53.766;9.626;2023-04-23T12:09:10;10.90;;;9.87;;
12871;SDS011;6504;53.766;9.626;2023-04-23T12:11:40;11.53;;;10.50;;
12871;SDS011;6504;53.766;9.626;2023-04-23T12:14:09;11.00;;;10.07;;
12871;SDS011;6504;53.766;9.626;2023-04-23T12:16:39;11.40;;;10.40;;
12871;SDS011;6504;53.766;9.626;2023-04-23T12:19:11;9.63;;;8.80;;
12871;SDS011;6504;53.766;9.626;2023-04-23T12:21:47;10.23;;;9.40;;
12871;SDS011;6504;53.766;9.626;2023-04-23T12:24:16;9.87;;;9.07;;
12871;SDS011;6504;53.766;9.626;2023-04-23T12:26:44;9.93;;;9.03;;
12871;SDS011;6504;53.766;9.626;2023-04-23T12:29:16;10.47;;;9.57;;
12871;SDS011;6504;53.766;9.626;2023-04-23T12:31:46;10.07;;;9.17;;
12871;SDS011;6504;53.766;9.626;2023-04-23T12:34:15;9.30;;;8.50;;
12871;SDS011;6504;53.766;9.626;2023-04-23T12:36:44;9.53;;;8.73;;
12871;SDS011;6504;53.766;9.626;2023-04-23T12:39:26;9.03;;;8.13;;
12871;SDS011;6504;53.766;9.626;2023-04-23T12:41:59;8.83;;;8.07;;
12871;SDS011;6504;53.766;9.626;2023-04-23T12:44:30;8.23;;;7.53;;
12871;SDS011;6504;53.766;9.626;2023-04-23T12:47:01;9.67;;;8.67;;
12871;SDS011;6504;53.766;9.626;2023-04-23T12:49:31;8.20;;;7.50;;
12871;SDS011;6504;53.766;9.626;2023-04-23T12:52:00;8.00;;;7.40;;
12871;SDS011;6504;53.766;9.626;2023-04-23T12:54:29;8.37;;;7.67;;
12871;SDS011;6504;53.766;9.626;2023-04-23T12:56:59;7.70;;;6.87;;
12871;SDS011;6504;53.766;9.626;2023-04-23T12:59:28;8.80;;;7.90;;
12871;SDS011;6504;53.766;9.626;2023-04-23T13:01:56;8.73;;;7.90;;
12871;SDS011;6504;53.766;9.626;2023-04-23T13:04:29;8.93;;;8.13;;
12871;SDS011;6504;53.766;9.626;2023-04-23T13:06:57;7.63;;;6.93;;
12871;SDS011;6504;53.766;9.626;2023-04-23T13:09:26;8.07;;;7.37;;
12871;SDS011;6504;53.766;9.626;2023-04-23T13:11:55;8.10;;;7.40;;
12871;SDS011;6504;53.766;9.626;2023-04-23T13:14:25;7.70;;;7.00;;
12871;SDS011;6504;53.766;9.626;2023-04-23T13:16:53;6.90;;;6.27;;
12871;SDS011;6504;53.766;9.626;2023-04-23T13:19:23;7.00;;;6.40;;
12871;SDS011;6504;53.766;9.626;2023-04-23T13:21:52;7.10;;;6.40;;
12871;SDS011;6504;53.766;9.626;2023-04-23T13:24:20;6.63;;;6.07;;
12871;SDS011;6504;53.766;9.626;2023-04-23T13:26:48;7.10;;;6.50;;
12871;SDS011;6504;53.766;9.626;2023-04-23T13:29:16;6.73;;;6.13;;
12871;SDS011;6504;53.766;9.626;2023-04-23T13:31:44;5.87;;;5.47;;
12871;SDS011;6504;53.766;9.626;2023-04-23T13:34:12;6.10;;;5.60;;
12871;SDS011;6504;53.766;9.626;2023-04-23T13:36:41;6.43;;;5.90;;
12871;SDS011;6504;53.766;9.626;2023-04-23T13:39:10;6.67;;;6.07;;
12871;SDS011;6504;53.766;9.626;2023-04-23T13:41:39;6.57;;;6.03;;
12871;SDS011;6504;53.766;9.626;2023-04-23T13:44:08;6.53;;;6.00;;
12871;SDS011;6504;53.766;9.626;2023-04-23T13:46:36;6.30;;;5.70;;
12871;SDS011;6504;53.766;9.626;2023-04-23T13:49:05;6.50;;;5.93;;
12871;SDS011;6504;53.766;9.626;2023-04-23T13:51:33;6.53;;;6.03;;
12871;SDS011;6504;53.766;9.626;2023-04-23T13:54:01;6.63;;;6.03;;
12871;SDS011;6504;53.766;9.626;2023-04-23T13:56:31;6.30;;;5.77;;
12871;SDS011;6504;53.766;9.626;2023-04-23T13:58:59;8.73;;;5.70;;
12871;SDS011;6504;53.766;9.626;2023-04-23T14:01:32;6.20;;;5.70;;
12871;SDS011;6504;53.766;9.626;2023-04-23T14:04:00;6.27;;;5.73;;
12871;SDS011;6504;53.766;9.626;2023-04-23T14:06:30;6.40;;;5.80;;
12871;SDS011;6504;53.766;9.626;2023-04-23T14:08:58;5.73;;;5.23;;
12871;SDS011;6504;53.766;9.626;2023-04-23T14:11:26;6.60;;;5.70;;
12871;SDS011;6504;53.766;9.626;2023-04-23T14:13:55;5.90;;;5.20;;
12871;SDS011;6504;53.766;9.626;2023-04-23T14:16:23;6.77;;;5.70;;
12871;SDS011;6504;53.766;9.626;2023-04-23T14:18:51;5.77;;;5.27;;
12871;SDS011;6504;53.766;9.626;2023-04-23T14:21:20;6.30;;;4.70;;
12871;SDS011;6504;53.766;9.626;2023-04-23T14:23:48;5.77;;;4.60;;
12871;SDS011;6504;53.766;9.626;2023-04-23T14:26:24;5.43;;;5.03;;
12871;SDS011;6504;53.766;9.626;2023-04-23T14:29:18;4.50;;;4.10;;
12871;SDS011;6504;53.766;9.626;2023-04-23T14:31:50;4.70;;;4.10;;
12871;SDS011;6504;53.766;9.626;2023-04-23T14:34:18;5.07;;;3.80;;
12871;SDS011;6504;53.766;9.626;2023-04-23T14:36:47;5.33;;;4.27;;
12871;SDS011;6504;53.766;9.626;2023-04-23T14:39:15;5.60;;;4.43;;
12871;SDS011;6504;53.766;9.626;2023-04-23T14:41:43;4.50;;;4.10;;
12871;SDS011;6504;53.766;9.626;2023-04-23T14:44:11;4.83;;;4.43;;
12871;SDS011;6504;53.766;9.626;2023-04-23T14:46:41;5.63;;;5.07;;
12871;SDS011;6504;53.766;9.626;2023-04-23T14:49:09;5.73;;;4.70;;
12871;SDS011;6504;53.766;9.626;2023-04-23T14:51:37;5.97;;;4.93;;
12871;SDS011;6504;53.766;9.626;2023-04-23T14:54:06;6.30;;;5.70;;
12871;SDS011;6504;53.766;9.626;2023-04-23T14:56:34;5.83;;;4.80;;
12871;SDS011;6504;53.766;9.626;2023-04-23T14:59:02;4.40;;;4.00;;
12871;SDS011;6504;53.766;9.626;2023-04-23T15:01:30;4.07;;;3.67;;
12871;SDS011;6504;53.766;9.626;2023-04-23T15:04:00;4.97;;;4.17;;
12871;SDS011;6504;53.766;9.626;2023-04-23T15:06:28;4.43;;;3.80;;
12871;SDS011;6504;53.766;9.626;2023-04-23T15:08:56;4.70;;;3.80;;